Time;durP1;ratioP1;P1;durP2;ratioP2;P2;SDS_P1;SDS_P2;PMS_P1;PMS_P2;Temp;Humidity;BMP_temperature;BMP_pressure;BME280_temperature;BME280_humidity;BME280_pressure;Samples;Min_cycle;Max_cycle;Signal;HPM_P1;HPM_P2
2023/04/03 00:01:56;;;;;;;;;;;2.40;99.90;;;;;;5009227;28;20364;-72
2023/04/03 00:04:22;;;;;;;;;;;2.40;99.90;;;;;;5006333;28;19913;-72
2023/04/03 00:06:48;;;;;;;;;;;2.40;99.90;;;;;;5010623;28;19913;-72
2023/04/03 00:09:13;;;;;;;;;;;2.30;99.90;;;;;;5002146;28;19913;-72
2023/04/03 00:11:39;;;;;;;;;;;2.30;99.90;;;;;;5006336;28;20253;-72
2023/04/03 00:14:05;;;;;;;;;;;2.30;99.90;;;;;;5019998;28;19929;-72
2023/04/03 00:16:30;;;;;;;;;;;2.20;99.90;;;;;;5024273;28;19970;-72
2023/04/03 00:18:56;;;;;;;;;;;2.20;99.90;;;;;;4990024;28;20003;-72
2023/04/03 00:21:22;;;;;;;;;;;2.20;99.90;;;;;;5017901;28;20319;-72
2023/04/03 00:23:47;;;;;;;;;;;2.20;99.90;;;;;;5005263;28;20488;-72
2023/04/03 00:26:13;;;;;;;;;;;2.20;99.90;;;;;;5005842;28;19979;-72
2023/04/03 00:28:39;;;;;;;;;;;2.10;99.90;;;;;;5008348;28;20048;-72
2023/04/03 00:31:05;;;;;;;;;;;2.10;99.90;;;;;;5002665;28;19955;-72
2023/04/03 00:33:30;;;;;;;;;;;2.10;99.90;;;;;;4991585;28;20015;-70
2023/04/03 00:35:56;;;;;;;;;;;2.10;99.90;;;;;;5008007;28;19990;-71
2023/04/03 00:38:21;;;;;;;;;;;2.00;99.90;;;;;;5001295;28;19920;-71
2023/04/03 00:40:48;;;;;;;;;;;2.00;99.90;;;;;;5004483;28;19913;-71
2023/04/03 00:43:21;;;;;;;;;;;2.00;99.90;;;;;;4989693;28;19913;-70
2023/04/03 00:45:47;;;;;;;;;;;2.00;99.90;;;;;;5011958;28;19912;-71
2023/04/03 00:48:14;;;;;;;;;;;2.00;99.90;;;;;;4998106;28;20642;-71
2023/04/03 00:50:40;;;;;;;;;;;2.00;99.90;;;;;;5016705;28;19913;-71
2023/04/03 00:53:06;;;;;;;;;;;1.90;99.90;;;;;;5007465;28;19923;-71
2023/04/03 00:55:32;;;;;;;;;;;1.90;99.90;;;;;;4997959;28;20246;-71
2023/04/03 00:57:58;;;;;;;;;;;1.90;99.90;;;;;;5007140;28;19956;-72
2023/04/03 01:00:23;;;;;;;;;;;1.90;99.90;;;;;;4988111;28;19956;-72
2023/04/03 01:02:50;;;;;;;;;;;1.90;99.90;;;;;;5008412;28;19920;-71
2023/04/03 01:05:16;;;;;;;;;;;1.80;99.90;;;;;;5000250;28;20378;-71
2023/04/03 01:07:41;;;;;;;;;;;1.80;99.90;;;;;;5010721;28;19967;-72
2023/04/03 01:10:08;;;;;;;;;;;1.80;99.90;;;;;;4995686;28;20325;-71
2023/04/03 01:12:35;;;;;;;;;;;1.70;99.90;;;;;;4998298;28;20337;-71
2023/04/03 01:15:02;;;;;;;;;;;1.70;99.90;;;;;;5013157;28;19921;-71
2023/04/03 01:17:32;;;;;;;;;;;1.80;99.90;;;;;;5013009;28;20322;-71
2023/04/03 01:20:06;;;;;;;;;;;1.80;99.90;;;;;;5008542;28;20033;-71
2023/04/03 01:22:33;;;;;;;;;;;1.70;99.90;;;;;;5004935;28;19960;-71
2023/04/03 01:24:59;;;;;;;;;;;1.70;99.90;;;;;;5002373;28;19916;-71
2023/04/03 01:27:25;;;;;;;;;;;1.70;99.90;;;;;;5027238;28;19951;-71
2023/04/03 01:29:51;;;;;;;;;;;1.70;99.90;;;;;;5025016;28;19924;-71
2023/04/03 01:32:17;;;;;;;;;;;1.60;99.90;;;;;;4995128;28;19921;-71
2023/04/03 01:34:42;;;;;;;;;;;1.60;99.90;;;;;;5032488;28;20412;-71
2023/04/03 01:37:08;;;;;;;;;;;1.40;99.90;;;;;;5032546;28;19913;-71
2023/04/03 01:39:34;;;;;;;;;;;1.40;99.90;;;;;;5024232;28;19914;-71
2023/04/03 01:42:00;;;;;;;;;;;1.40;99.90;;;;;;4992729;28;19967;-71
2023/04/03 01:44:25;;;;;;;;;;;1.40;99.90;;;;;;5003484;28;19913;-71
2023/04/03 01:46:51;;;;;;;;;;;1.30;99.90;;;;;;5007006;28;20710;-71
2023/04/03 01:49:16;;;;;;;;;;;1.30;99.90;;;;;;4998003;28;19913;-71
2023/04/03 01:51:42;;;;;;;;;;;1.30;99.90;;;;;;5016354;28;19913;-71
2023/04/03 01:54:08;;;;;;;;;;;1.30;99.90;;;;;;5002775;28;19929;-71
2023/04/03 01:56:33;;;;;;;;;;;1.30;99.90;;;;;;4992226;28;19968;-71
2023/04/03 01:58:59;;;;;;;;;;;1.30;99.90;;;;;;4992372;28;19967;-71
2023/04/03 02:01:25;;;;;;;;;;;1.20;99.90;;;;;;4998107;28;19960;-71
2023/04/03 02:03:51;;;;;;;;;;;1.20;99.90;;;;;;4999728;28;20496;-71
2023/04/03 02:06:17;;;;;;;;;;;1.20;99.90;;;;;;5031085;28;19956;-71
2023/04/03 02:08:42;;;;;;;;;;;1.20;99.90;;;;;;5004134;28;19912;-72
2023/04/03 02:11:08;;;;;;;;;;;1.20;99.90;;;;;;5010797;28;19968;-71
2023/04/03 02:13:34;;;;;;;;;;;1.30;99.90;;;;;;4997918;28;20664;-71
2023/04/03 02:16:05;;;;;;;;;;;1.30;99.90;;;;;;5008671;28;20352;-71
2023/04/03 02:18:31;;;;;;;;;;;1.20;99.90;;;;;;5006248;28;20008;-71
2023/04/03 02:20:56;;;;;;;;;;;1.20;99.90;;;;;;5026865;28;19988;-71
2023/04/03 02:23:22;;;;;;;;;;;1.20;99.90;;;;;;4980004;28;19913;-71
2023/04/03 02:25:48;;;;;;;;;;;1.20;99.90;;;;;;5006578;28;19960;-71
2023/04/03 02:28:14;;;;;;;;;;;1.20;99.90;;;;;;5006598;28;20405;-71
2023/04/03 02:30:40;;;;;;;;;;;1.10;99.90;;;;;;5002950;28;20000;-71
2023/04/03 02:33:05;;;;;;;;;;;1.10;99.90;;;;;;5010656;28;19960;-71
2023/04/03 02:35:31;;;;;;;;;;;1.10;99.90;;;;;;5026218;28;19925;-72
2023/04/03 02:37:57;;;;;;;;;;;1.20;99.90;;;;;;5004693;28;19966;-71
2023/04/03 02:40:22;;;;;;;;;;;1.20;99.90;;;;;;5027145;28;19912;-71
2023/04/03 02:42:48;;;;;;;;;;;1.10;99.90;;;;;;5008119;28;19917;-71
2023/04/03 02:45:14;;;;;;;;;;;1.00;99.90;;;;;;5011229;28;19923;-71
2023/04/03 02:47:39;;;;;;;;;;;1.00;99.90;;;;;;4997672;28;19923;-71
2023/04/03 02:50:05;;;;;;;;;;;1.00;99.90;;;;;;5010662;28;20035;-71
2023/04/03 02:52:31;;;;;;;;;;;1.00;99.90;;;;;;5008006;28;20585;-71
2023/04/03 02:54:57;;;;;;;;;;;0.90;99.90;;;;;;5008337;28;19924;-72
2023/04/03 02:57:23;;;;;;;;;;;0.90;99.90;;;;;;5007049;28;19913;-71
2023/04/03 02:59:48;;;;;;;;;;;1.00;99.90;;;;;;5002453;28;19924;-71
2023/04/03 03:02:14;;;;;;;;;;;1.00;99.90;;;;;;5024297;28;19920;-71
2023/04/03 03:04:40;;;;;;;;;;;0.90;99.90;;;;;;5025157;28;19913;-71
2023/04/03 03:07:05;;;;;;;;;;;0.90;99.90;;;;;;5009119;28;19983;-71
2023/04/03 03:09:31;;;;;;;;;;;0.90;99.90;;;;;;4996865;28;19917;-71
2023/04/03 03:11:57;;;;;;;;;;;0.90;99.90;;;;;;4995067;28;19971;-71
2023/04/03 03:14:23;;;;;;;;;;;0.90;99.90;;;;;;5004321;28;20598;-71
2023/04/03 03:16:50;;;;;;;;;;;0.90;99.90;;;;;;4991208;28;19913;-71
2023/04/03 03:19:16;;;;;;;;;;;0.90;99.90;;;;;;4974405;28;19914;-71
2023/04/03 03:21:41;;;;;;;;;;;0.80;99.90;;;;;;4987523;28;20270;-71
2023/04/03 03:24:07;;;;;;;;;;;0.70;99.90;;;;;;5007760;28;19917;-71
2023/04/03 03:26:34;;;;;;;;;;;0.70;99.90;;;;;;5009197;28;19917;-71
2023/04/03 03:29:00;;;;;;;;;;;0.70;99.90;;;;;;5004298;28;19913;-71
2023/04/03 03:31:25;;;;;;;;;;;0.70;99.90;;;;;;4999617;28;20246;-71
2023/04/03 03:33:51;;;;;;;;;;;0.80;99.90;;;;;;5004010;28;19922;-71
2023/04/03 03:36:17;;;;;;;;;;;0.80;99.90;;;;;;4981871;28;20000;-71
2023/04/03 03:38:42;;;;;;;;;;;0.80;99.90;;;;;;5002582;28;19948;-71
2023/04/03 03:41:08;;;;;;;;;;;0.70;99.90;;;;;;4972285;28;19917;-71
2023/04/03 03:43:34;;;;;;;;;;;0.70;99.90;;;;;;5009306;28;19972;-71
2023/04/03 03:46:00;;;;;;;;;;;0.70;99.90;;;;;;4991925;28;20579;-71
2023/04/03 03:48:26;;;;;;;;;;;0.60;99.90;;;;;;4993502;28;19979;-71
2023/04/03 03:50:51;;;;;;;;;;;0.70;99.90;;;;;;4981635;28;19918;-71
2023/04/03 03:53:17;;;;;;;;;;;0.60;99.90;;;;;;4993125;28;20330;-71
2023/04/03 03:55:43;;;;;;;;;;;0.60;99.90;;;;;;5000829;28;20006;-72
2023/04/03 03:58:08;;;;;;;;;;;0.60;99.90;;;;;;5004597;28;19992;-71
2023/04/03 04:00:34;;;;;;;;;;;0.50;99.90;;;;;;5009379;28;20007;-71
2023/04/03 04:03:00;;;;;;;;;;;0.50;99.90;;;;;;4990810;28;19996;-71
2023/04/03 04:05:26;;;;;;;;;;;0.50;99.90;;;;;;4990001;28;19979;-71
2023/04/03 04:07:52;;;;;;;;;;;0.50;99.90;;;;;;4984860;28;19920;-71
2023/04/03 04:10:18;;;;;;;;;;;0.60;99.90;;;;;;5007391;28;19921;-71
2023/04/03 04:12:43;;;;;;;;;;;0.50;99.90;;;;;;4989405;28;19917;-71
2023/04/03 04:15:09;;;;;;;;;;;0.40;99.90;;;;;;4994767;28;19921;-71
2023/04/03 04:17:35;;;;;;;;;;;0.40;99.90;;;;;;4996815;28;19924;-71
2023/04/03 04:20:02;;;;;;;;;;;0.50;99.90;;;;;;5006460;28;19910;-72
2023/04/03 04:22:28;;;;;;;;;;;0.50;99.90;;;;;;4996538;28;20306;-71
2023/04/03 04:24:53;;;;;;;;;;;0.40;99.90;;;;;;4996764;28;20012;-71
2023/04/03 04:27:19;;;;;;;;;;;0.40;99.90;;;;;;4983713;28;19924;-71
2023/04/03 04:29:45;;;;;;;;;;;0.50;99.90;;;;;;5009271;28;19968;-72
2023/04/03 04:32:10;;;;;;;;;;;0.40;99.90;;;;;;5001399;28;19949;-71
2023/04/03 04:34:36;;;;;;;;;;;0.40;99.90;;;;;;5008429;28;20022;-71
2023/04/03 04:37:01;;;;;;;;;;;0.50;99.90;;;;;;4998267;28;20000;-71
2023/04/03 04:39:27;;;;;;;;;;;0.40;99.90;;;;;;5006316;28;20393;-71
2023/04/03 04:41:53;;;;;;;;;;;0.40;99.90;;;;;;4991357;28;19914;-71
2023/04/03 04:44:18;;;;;;;;;;;0.30;99.90;;;;;;4992030;28;19952;-71
2023/04/03 04:46:44;;;;;;;;;;;0.30;99.90;;;;;;5025668;28;20393;-71
2023/04/03 04:49:10;;;;;;;;;;;0.40;99.90;;;;;;4987268;28;19999;-71
2023/04/03 04:51:36;;;;;;;;;;;0.30;99.90;;;;;;4992972;28;19945;-71
2023/04/03 04:54:01;;;;;;;;;;;0.30;99.90;;;;;;5022954;28;19917;-71
2023/04/03 04:56:27;;;;;;;;;;;0.30;99.90;;;;;;5000297;28;19924;-71
2023/04/03 04:58:52;;;;;;;;;;;0.30;99.90;;;;;;4992948;28;19913;-71
2023/04/03 05:01:18;;;;;;;;;;;0.30;99.90;;;;;;5000806;28;19932;-71
2023/04/03 05:03:44;;;;;;;;;;;0.30;99.90;;;;;;4998427;28;20477;-71
2023/04/03 05:06:09;;;;;;;;;;;0.30;99.90;;;;;;5001780;28;20410;-71
2023/04/03 05:08:35;;;;;;;;;;;0.30;99.90;;;;;;5000470;28;19917;-70
2023/04/03 05:11:01;;;;;;;;;;;0.30;99.90;;;;;;4989566;28;20484;-71
2023/04/03 05:13:26;;;;;;;;;;;0.40;99.90;;;;;;5025463;28;19923;-71
2023/04/03 05:15:52;;;;;;;;;;;0.40;99.90;;;;;;5018607;28;20337;-71
2023/04/03 05:18:17;;;;;;;;;;;0.50;99.90;;;;;;4998653;28;20404;-71
2023/04/03 05:20:43;;;;;;;;;;;0.40;99.90;;;;;;5007666;28;20249;-71
2023/04/03 05:23:10;;;;;;;;;;;0.40;99.90;;;;;;5004310;28;20050;-71
2023/04/03 05:25:37;;;;;;;;;;;0.50;99.90;;;;;;4990418;28;20273;-71
2023/04/03 05:28:03;;;;;;;;;;;0.50;99.90;;;;;;5007839;28;19921;-71
2023/04/03 05:30:28;;;;;;;;;;;0.50;99.90;;;;;;5031926;28;19920;-71
2023/04/03 05:32:54;;;;;;;;;;;0.50;99.90;;;;;;5011205;28;19909;-71
2023/04/03 05:35:20;;;;;;;;;;;0.50;99.90;;;;;;5012077;28;20072;-71
2023/04/03 05:37:45;;;;;;;;;;;0.50;99.90;;;;;;5011604;28;20007;-71
2023/04/03 05:40:11;;;;;;;;;;;0.50;99.90;;;;;;4994200;28;19967;-71
2023/04/03 05:42:37;;;;;;;;;;;0.50;99.90;;;;;;5012022;28;20220;-71
2023/04/03 05:45:03;;;;;;;;;;;0.50;99.90;;;;;;5013294;28;19919;-71
2023/04/03 05:47:30;;;;;;;;;;;0.50;99.90;;;;;;5011467;28;20375;-71
2023/04/03 05:49:56;;;;;;;;;;;0.60;99.90;;;;;;5029822;28;19913;-71
2023/04/03 05:52:22;;;;;;;;;;;0.60;99.90;;;;;;5028368;28;20313;-71
2023/04/03 05:54:48;;;;;;;;;;;0.60;99.90;;;;;;4996721;28;19927;-71
2023/04/03 05:57:15;;;;;;;;;;;0.70;99.90;;;;;;5011354;28;19909;-71
2023/04/03 05:59:42;;;;;;;;;;;0.70;99.90;;;;;;5030163;28;20246;-70
2023/04/03 06:02:09;;;;;;;;;;;0.80;99.90;;;;;;5031023;28;19924;-72
2023/04/03 06:04:34;;;;;;;;;;;0.80;99.90;;;;;;4996769;28;19952;-71
2023/04/03 06:07:00;;;;;;;;;;;0.80;99.90;;;;;;5013059;28;20002;-71
2023/04/03 06:09:26;;;;;;;;;;;0.90;99.90;;;;;;5009457;28;20004;-71
2023/04/03 06:11:53;;;;;;;;;;;0.90;99.90;;;;;;5025529;28;19928;-71
2023/04/03 06:14:19;;;;;;;;;;;1.10;99.90;;;;;;4993204;28;19921;-71
2023/04/03 06:16:44;;;;;;;;;;;1.00;99.90;;;;;;5002657;28;19944;-71
2023/04/03 06:19:10;;;;;;;;;;;1.00;99.90;;;;;;5027406;28;20003;-71
2023/04/03 06:21:36;;;;;;;;;;;1.10;99.90;;;;;;4997865;28;19909;-71
2023/04/03 06:24:05;;;;;;;;;;;1.10;99.90;;;;;;5017390;28;19927;-72
2023/04/03 06:26:31;;;;;;;;;;;1.10;99.90;;;;;;5009548;28;19917;-71
2023/04/03 06:28:56;;;;;;;;;;;1.20;99.90;;;;;;5029776;28;19920;-71
2023/04/03 06:31:22;;;;;;;;;;;1.20;99.90;;;;;;4999633;28;19921;-71
2023/04/03 06:33:49;;;;;;;;;;;1.20;99.90;;;;;;5005109;28;19966;-71
2023/04/03 06:36:19;;;;;;;;;;;1.30;99.90;;;;;;5013295;28;19955;-71
2023/04/03 06:38:45;;;;;;;;;;;1.30;99.90;;;;;;4988540;28;20007;-71
2023/04/03 06:41:10;;;;;;;;;;;1.30;99.90;;;;;;5008603;28;20373;-71
2023/04/03 06:43:36;;;;;;;;;;;1.40;99.90;;;;;;4992359;28;19913;-71
2023/04/03 06:46:02;;;;;;;;;;;1.50;99.90;;;;;;4998317;28;20008;-70
2023/04/03 06:48:27;;;;;;;;;;;1.50;99.90;;;;;;4979970;28;20019;-70
2023/04/03 06:50:53;;;;;;;;;;;1.50;99.90;;;;;;4998103;28;19912;-71
2023/04/03 06:53:19;;;;;;;;;;;1.60;99.90;;;;;;5019354;28;19913;-71
2023/04/03 06:55:44;;;;;;;;;;;1.60;99.90;;;;;;4995966;28;20309;-71
2023/04/03 06:58:10;;;;;;;;;;;1.70;99.90;;;;;;5004112;28;20345;-71
2023/04/03 07:00:36;;;;;;;;;;;1.80;99.90;;;;;;4987810;28;19917;-71
2023/04/03 07:03:02;;;;;;;;;;;1.80;99.90;;;;;;4991623;28;20016;-70
2023/04/03 07:05:28;;;;;;;;;;;1.90;99.90;;;;;;4998359;28;19913;-71
2023/04/03 07:07:53;;;;;;;;;;;1.90;99.90;;;;;;5009575;28;20334;-71
2023/04/03 07:10:19;;;;;;;;;;;1.90;99.90;;;;;;4998805;28;19913;-71
2023/04/03 07:12:45;;;;;;;;;;;2.00;99.90;;;;;;5005673;28;19971;-71
2023/04/03 07:15:12;;;;;;;;;;;2.00;99.90;;;;;;4998905;28;19925;-71
2023/04/03 07:17:38;;;;;;;;;;;2.10;99.90;;;;;;4998796;28;19971;-71
2023/04/03 07:20:04;;;;;;;;;;;2.10;99.90;;;;;;5008555;28;19913;-71
2023/04/03 07:22:30;;;;;;;;;;;2.20;99.90;;;;;;4993057;28;19940;-71
2023/04/03 07:24:55;;;;;;;;;;;2.20;99.90;;;;;;4973384;28;19913;-71
2023/04/03 07:27:21;;;;;;;;;;;2.30;99.90;;;;;;5015246;28;19952;-71
2023/04/03 07:29:48;;;;;;;;;;;2.40;99.90;;;;;;4992530;28;20257;-71
2023/04/03 07:32:14;;;;;;;;;;;2.50;99.90;;;;;;4991395;28;19913;-71
2023/04/03 07:34:41;;;;;;;;;;;2.50;99.90;;;;;;5018334;28;20382;-72
2023/04/03 07:37:08;;;;;;;;;;;2.60;99.90;;;;;;4991349;28;20658;-71
2023/04/03 07:39:34;;;;;;;;;;;2.70;99.90;;;;;;4998279;28;20389;-71
2023/04/03 07:42:00;;;;;;;;;;;2.70;99.90;;;;;;5013006;28;19912;-71
2023/04/03 07:44:26;;;;;;;;;;;2.80;99.90;;;;;;5013981;28;20339;-71
2023/04/03 07:46:53;;;;;;;;;;;2.90;99.90;;;;;;4997115;28;19928;-71
2023/04/03 07:49:19;;;;;;;;;;;3.00;99.90;;;;;;4996011;28;19913;-71
2023/04/03 07:51:45;;;;;;;;;;;3.00;99.90;;;;;;5005621;28;20362;-72
2023/04/03 07:54:10;;;;;;;;;;;3.10;99.90;;;;;;5012385;28;19974;-71
2023/04/03 07:56:36;;;;;;;;;;;3.20;99.90;;;;;;4997053;28;19923;-71
2023/04/03 07:59:02;;;;;;;;;;;3.30;99.90;;;;;;5025259;28;19917;-71
2023/04/03 08:01:27;;;;;;;;;;;3.50;99.90;;;;;;4984363;28;19924;-71
2023/04/03 08:03:53;;;;;;;;;;;3.50;99.90;;;;;;4990956;28;20028;-71
2023/04/03 08:06:19;;;;;;;;;;;3.60;99.90;;;;;;5006901;28;19914;-71
2023/04/03 08:08:45;;;;;;;;;;;3.60;99.90;;;;;;5012332;28;19944;-71
2023/04/03 08:11:11;;;;;;;;;;;3.70;99.90;;;;;;5024027;28;19943;-71
2023/04/03 08:13:37;;;;;;;;;;;3.70;99.90;;;;;;4990124;28;20381;-71
2023/04/03 08:16:12;;;;;;;;;;;3.90;99.90;;;;;;5012709;28;19924;-71
2023/04/03 08:18:38;;;;;;;;;;;3.90;99.90;;;;;;4997995;28;19913;-71
2023/04/03 08:21:08;;;;;;;;;;;4.00;99.90;;;;;;5008283;28;20021;-72
2023/04/03 08:23:34;;;;;;;;;;;4.10;99.90;;;;;;4974451;28;20015;-72
2023/04/03 08:26:04;;;;;;;;;;;4.20;99.90;;;;;;5017505;28;20000;-71
2023/04/03 08:28:30;;;;;;;;;;;4.20;99.90;;;;;;4976266;28;19957;-71
2023/04/03 08:30:55;;;;;;;;;;;4.20;99.90;;;;;;4972529;28;19960;-71
2023/04/03 08:33:21;;;;;;;;;;;4.20;99.90;;;;;;5003350;28;20360;-71
2023/04/03 08:35:47;;;;;;;;;;;4.30;99.90;;;;;;5011023;28;19917;-71
2023/04/03 08:38:12;;;;;;;;;;;4.40;99.90;;;;;;4995588;28;20003;-71
2023/04/03 08:40:45;;;;;;;;;;;4.50;99.90;;;;;;4997021;28;20317;-71
2023/04/03 08:43:28;;;;;;;;;;;4.60;99.90;;;;;;4995061;28;19925;-72
2023/04/03 08:45:54;;;;;;;;;;;4.60;99.90;;;;;;5006959;28;20477;-71
2023/04/03 08:48:31;;;;;;;;;;;4.70;99.90;;;;;;5007886;28;19913;-71
2023/04/03 08:50:58;;;;;;;;;;;4.80;99.90;;;;;;5022341;28;20334;-71
2023/04/03 08:53:32;;;;;;;;;;;4.80;99.90;;;;;;4974937;28;19909;-71
2023/04/03 08:55:58;;;;;;;;;;;5.00;99.90;;;;;;4989320;28;19909;-71
2023/04/03 08:58:28;;;;;;;;;;;5.10;99.90;;;;;;4993782;28;19920;-71
2023/04/03 09:01:05;;;;;;;;;;;5.10;99.90;;;;;;4993855;28;20809;-72
2023/04/03 09:03:31;;;;;;;;;;;5.20;99.90;;;;;;5009635;28;20095;-72
2023/04/03 09:06:02;;;;;;;;;;;5.30;99.90;;;;;;4999450;28;19912;-71
2023/04/03 09:08:29;;;;;;;;;;;5.40;99.20;;;;;;4999704;28;19909;-71
2023/04/03 09:11:21;;;;;;;;;;;5.40;99.10;;;;;;5002884;28;19913;-72
2023/04/03 09:13:55;;;;;;;;;;;5.40;99.50;;;;;;5004781;28;20348;-71
2023/04/03 09:16:41;;;;;;;;;;;5.30;97.70;;;;;;4996199;28;19913;-72
2023/04/03 09:19:14;;;;;;;;;;;5.30;99.30;;;;;;4989201;28;20363;-71
2023/04/03 09:21:43;;;;;;;;;;;5.60;99.20;;;;;;5011144;28;19913;-71
2023/04/03 09:24:10;;;;;;;;;;;5.70;99.60;;;;;;5021487;28;20006;-71
2023/04/03 09:26:41;;;;;;;;;;;5.80;98.90;;;;;;5004258;28;19921;-72
2023/04/03 09:29:07;;;;;;;;;;;6.00;98.40;;;;;;4997702;28;20273;-71
2023/04/03 09:31:36;;;;;;;;;;;6.10;98.30;;;;;;4991283;28;20649;-71
2023/04/03 09:34:06;;;;;;;;;;;6.10;96.00;;;;;;5010978;28;20011;-71
2023/04/03 09:36:45;;;;;;;;;;;6.00;96.70;;;;;;4995720;28;19963;-71
2023/04/03 09:39:18;;;;;;;;;;;6.20;96.00;;;;;;4996644;28;20315;-71
2023/04/03 09:42:00;;;;;;;;;;;6.30;95.50;;;;;;5026934;28;19959;-72
2023/04/03 09:44:26;;;;;;;;;;;6.40;95.30;;;;;;5014493;28;19913;-72
2023/04/03 09:46:52;;;;;;;;;;;6.50;92.80;;;;;;5002098;28;19979;-72
2023/04/03 09:49:17;;;;;;;;;;;6.40;92.40;;;;;;4993641;28;19913;-72
2023/04/03 09:51:44;;;;;;;;;;;6.10;91.50;;;;;;4995954;28;19913;-73
2023/04/03 09:54:25;;;;;;;;;;;6.00;92.10;;;;;;4998291;28;19917;-73
2023/04/03 09:56:53;;;;;;;;;;;5.90;91.20;;;;;;5011824;28;20317;-73
2023/04/03 09:59:18;;;;;;;;;;;5.80;92.80;;;;;;4998348;28;21014;-73
2023/04/03 10:01:56;;;;;;;;;;;5.80;93.00;;;;;;4995147;28;19917;-73
2023/04/03 10:04:22;;;;;;;;;;;5.80;93.60;;;;;;5014309;28;19917;-73
2023/04/03 10:06:49;;;;;;;;;;;5.80;93.50;;;;;;5008815;28;19925;-72
2023/04/03 10:09:25;;;;;;;;;;;5.80;93.80;;;;;;4992158;28;19913;-72
2023/04/03 10:12:01;;;;;;;;;;;5.80;93.80;;;;;;4996472;28;19917;-73
2023/04/03 10:14:27;;;;;;;;;;;5.70;92.40;;;;;;4982636;28;20015;-73
2023/04/03 10:16:57;;;;;;;;;;;5.70;93.70;;;;;;4983710;28;19913;-74
2023/04/03 10:19:26;;;;;;;;;;;5.60;92.50;;;;;;4995782;28;20397;-74
2023/04/03 10:21:55;;;;;;;;;;;5.80;96.20;;;;;;5013108;28;19920;-73
2023/04/03 10:24:24;;;;;;;;;;;6.10;99.90;;;;;;5029342;28;19913;-74
2023/04/03 10:26:49;;;;;;;;;;;6.20;93.80;;;;;;4991533;28;19953;-73
2023/04/03 10:29:25;;;;;;;;;;;6.20;92.10;;;;;;5025871;28;20025;-73
2023/04/03 10:31:51;;;;;;;;;;;6.10;90.40;;;;;;5000302;28;20672;-71
2023/04/03 10:34:17;;;;;;;;;;;6.00;89.40;;;;;;5007766;28;19913;-71
2023/04/03 10:36:49;;;;;;;;;;;5.90;87.30;;;;;;5018931;28;20003;-71
2023/04/03 10:39:21;;;;;;;;;;;6.10;90.40;;;;;;4994334;28;20360;-72
2023/04/03 10:42:02;;;;;;;;;;;6.40;90.60;;;;;;5003223;28;19987;-71
2023/04/03 10:44:51;;;;;;;;;;;6.80;86.00;;;;;;4998260;28;19913;-71
2023/04/03 10:47:25;;;;;;;;;;;6.60;82.60;;;;;;5001460;28;19949;-71
2023/04/03 10:49:56;;;;;;;;;;;6.70;83.00;;;;;;4985739;28;20000;-71
2023/04/03 10:52:23;;;;;;;;;;;7.30;85.40;;;;;;5001837;28;20000;-71
2023/04/03 10:54:56;;;;;;;;;;;7.80;78.20;;;;;;5014880;28;19927;-72
2023/04/03 10:57:22;;;;;;;;;;;8.10;73.20;;;;;;4985927;28;20004;-71
2023/04/03 10:59:58;;;;;;;;;;;8.10;71.60;;;;;;5026050;28;20314;-71
2023/04/03 11:02:23;;;;;;;;;;;7.90;70.50;;;;;;5008391;28;19913;-71
2023/04/03 11:04:52;;;;;;;;;;;7.80;72.00;;;;;;5031857;28;19967;-71
2023/04/03 11:07:17;;;;;;;;;;;7.70;70.40;;;;;;4998071;28;19909;-71
2023/04/03 11:09:44;;;;;;;;;;;7.50;70.30;;;;;;4992585;28;19920;-72
2023/04/03 11:12:13;;;;;;;;;;;7.20;69.80;;;;;;5011291;28;19974;-71
2023/04/03 11:14:40;;;;;;;;;;;6.80;70.60;;;;;;4998149;28;19921;-71
2023/04/03 11:17:35;;;;;;;;;;;6.70;73.10;;;;;;5007150;28;20326;-71
2023/04/03 11:20:01;;;;;;;;;;;6.70;73.60;;;;;;5008744;28;19920;-71
2023/04/03 11:22:28;;;;;;;;;;;6.70;75.50;;;;;;5026228;28;19912;-71
2023/04/03 11:24:58;;;;;;;;;;;6.80;74.30;;;;;;4988583;28;19913;-71
2023/04/03 11:27:24;;;;;;;;;;;6.80;70.20;;;;;;4987860;28;19998;-71
2023/04/03 11:29:50;;;;;;;;;;;6.90;70.10;;;;;;4962844;28;20353;-71
2023/04/03 11:32:41;;;;;;;;;;;6.80;69.70;;;;;;4996346;28;20334;-72
2023/04/03 11:35:07;;;;;;;;;;;6.70;67.60;;;;;;5015133;28;19928;-72
2023/04/03 11:37:44;;;;;;;;;;;7.00;69.80;;;;;;5014787;28;19917;-72
2023/04/03 11:40:17;;;;;;;;;;;7.30;68.00;;;;;;5003520;28;19917;-73
2023/04/03 11:42:47;;;;;;;;;;;8.00;65.30;;;;;;4997544;28;20245;-73
2023/04/03 11:45:21;;;;;;;;;;;8.50;63.10;;;;;;4977492;28;19917;-73
2023/04/03 11:47:48;;;;;;;;;;;8.70;63.30;;;;;;5009955;28;19913;-73
2023/04/03 11:50:32;;;;;;;;;;;8.60;61.80;;;;;;5004982;28;20218;-73
2023/04/03 11:52:59;;;;;;;;;;;8.80;64.80;;;;;;5011310;28;19953;-73
2023/04/03 11:55:30;;;;;;;;;;;9.10;66.40;;;;;;5001967;28;19917;-73
2023/04/03 11:58:00;;;;;;;;;;;8.90;64.00;;;;;;5020837;28;19939;-73
2023/04/03 12:00:47;;;;;;;;;;;9.10;61.10;;;;;;5031367;28;19913;-73
2023/04/03 12:03:28;;;;;;;;;;;9.30;57.70;;;;;;5013003;28;19927;-72
2023/04/03 12:06:05;;;;;;;;;;;9.50;58.30;;;;;;4998670;28;20233;-73
2023/04/03 12:08:40;;;;;;;;;;;9.90;57.90;;;;;;5014774;28;19940;-72
2023/04/03 12:11:12;;;;;;;;;;;9.20;56.00;;;;;;4996537;28;19979;-72
2023/04/03 12:13:39;;;;;;;;;;;9.10;57.90;;;;;;5009045;28;19983;-72
2023/04/03 12:16:05;;;;;;;;;;;9.60;56.50;;;;;;5003183;28;19920;-73
2023/04/03 12:18:32;;;;;;;;;;;9.90;59.40;;;;;;4994296;28;19915;-72
2023/04/03 12:20:58;;;;;;;;;;;9.80;55.60;;;;;;5009762;28;19923;-72
2023/04/03 12:23:24;;;;;;;;;;;10.00;59.80;;;;;;4990113;28;19928;-72
2023/04/03 12:25:50;;;;;;;;;;;9.90;55.50;;;;;;5024948;28;19987;-72
2023/04/03 12:28:16;;;;;;;;;;;9.80;58.70;;;;;;4985067;28;19924;-72
2023/04/03 12:30:43;;;;;;;;;;;9.40;55.30;;;;;;5010481;28;20018;-72
2023/04/03 12:33:35;;;;;;;;;;;9.00;56.40;;;;;;5007886;28;19941;-72
2023/04/03 12:36:08;;;;;;;;;;;8.70;55.10;;;;;;4989026;28;20362;-72
2023/04/03 12:38:50;;;;;;;;;;;8.80;58.10;;;;;;5004947;28;19924;-73
2023/04/03 12:41:21;;;;;;;;;;;8.50;58.90;;;;;;5014036;28;19912;-72
2023/04/03 12:43:53;;;;;;;;;;;8.40;59.60;;;;;;4994306;28;20330;-73
2023/04/03 12:46:20;;;;;;;;;;;8.50;59.50;;;;;;5024430;28;19908;-72
2023/04/03 12:48:53;;;;;;;;;;;8.90;59.70;;;;;;4992100;28;19940;-73
2023/04/03 12:51:20;;;;;;;;;;;9.50;57.60;;;;;;5014137;28;19924;-73
2023/04/03 12:53:46;;;;;;;;;;;10.00;54.60;;;;;;4998541;28;19909;-73
2023/04/03 12:56:38;;;;;;;;;;;10.10;52.60;;;;;;5007157;28;19920;-73
2023/04/03 12:59:14;;;;;;;;;;;9.70;53.80;;;;;;4994656;28;19912;-73
2023/04/03 13:01:40;;;;;;;;;;;9.60;54.40;;;;;;4986385;28;19913;-73
2023/04/03 13:04:06;;;;;;;;;;;9.30;54.10;;;;;;5026948;28;20042;-72
2023/04/03 13:06:39;;;;;;;;;;;9.20;54.50;;;;;;4991108;28;20004;-73
2023/04/03 13:09:05;;;;;;;;;;;9.20;54.60;;;;;;5012095;28;19917;-73
2023/04/03 13:11:32;;;;;;;;;;;9.80;55.70;;;;;;4975637;28;20008;-73
2023/04/03 13:13:59;;;;;;;;;;;10.50;52.80;;;;;;4989958;28;19922;-73
2023/04/03 13:16:25;;;;;;;;;;;11.10;51.60;;;;;;4991352;28;19914;-73
2023/04/03 13:18:51;;;;;;;;;;;11.70;50.40;;;;;;4990738;28;20615;-73
2023/04/03 13:21:18;;;;;;;;;;;12.10;48.50;;;;;;4974970;28;19914;-73
2023/04/03 13:23:46;;;;;;;;;;;11.90;46.60;;;;;;4972124;28;19924;-73
2023/04/03 13:26:12;;;;;;;;;;;11.60;48.60;;;;;;4974574;28;19913;-73
2023/04/03 13:28:37;;;;;;;;;;;11.50;49.50;;;;;;4984508;28;19972;-73
2023/04/03 13:31:23;;;;;;;;;;;10.70;50.10;;;;;;4991721;28;19914;-73
2023/04/03 13:33:56;;;;;;;;;;;10.80;50.40;;;;;;4991674;28;20064;-73
2023/04/03 13:36:22;;;;;;;;;;;10.50;50.10;;;;;;4990783;28;19975;-73
2023/04/03 13:39:07;;;;;;;;;;;10.00;51.00;;;;;;4991014;28;19913;-73
2023/04/03 13:41:39;;;;;;;;;;;9.50;50.70;;;;;;4989839;28;19921;-73
2023/04/03 13:44:20;;;;;;;;;;;10.10;50.70;;;;;;4990587;28;19940;-74
2023/04/03 13:46:46;;;;;;;;;;;10.30;51.80;;;;;;4990571;28;19957;-74
2023/04/03 13:49:22;;;;;;;;;;;10.90;50.80;;;;;;4991036;28;20385;-74
2023/04/03 13:51:48;;;;;;;;;;;11.50;49.00;;;;;;4990274;28;20234;-75
2023/04/03 13:54:22;;;;;;;;;;;12.30;50.80;;;;;;4993778;28;19918;-75
2023/04/03 13:56:52;;;;;;;;;;;12.60;47.00;;;;;;4992218;28;19921;-74
2023/04/03 13:59:18;;;;;;;;;;;12.20;45.50;;;;;;4993751;28;19980;-74
2023/04/03 14:01:49;;;;;;;;;;;11.70;46.20;;;;;;4995287;28;19917;-73
2023/04/03 14:04:19;;;;;;;;;;;11.00;47.50;;;;;;4995027;28;19980;-73
2023/04/03 14:06:45;;;;;;;;;;;10.40;48.60;;;;;;4976794;28;20223;-73
2023/04/03 14:09:11;;;;;;;;;;;10.20;47.10;;;;;;4993543;28;19920;-74
2023/04/03 14:11:36;;;;;;;;;;;10.50;48.90;;;;;;4999844;28;19924;-74
2023/04/03 14:14:05;;;;;;;;;;;10.50;49.30;;;;;;4989163;28;20023;-74
2023/04/03 14:16:31;;;;;;;;;;;10.70;49.20;;;;;;4991699;28;19920;-73
2023/04/03 14:18:56;;;;;;;;;;;10.40;49.00;;;;;;5030115;28;19913;-73
2023/04/03 14:21:23;;;;;;;;;;;9.90;49.20;;;;;;5003858;28;20350;-73
2023/04/03 14:23:49;;;;;;;;;;;10.30;50.60;;;;;;5000318;28;19909;-74
2023/04/03 14:26:26;;;;;;;;;;;11.20;49.30;;;;;;5001207;28;19914;-74
2023/04/03 14:28:53;;;;;;;;;;;11.50;44.30;;;;;;5012540;28;19917;-74
2023/04/03 14:31:18;;;;;;;;;;;11.60;48.30;;;;;;4997034;28;19913;-73
2023/04/03 14:33:44;;;;;;;;;;;11.20;47.60;;;;;;5012837;28;19913;-73